Latest Coastal Weather Observations for Troughton Island

IDW60701

Issued at 12:44 pm WST Wednesday 20 January 2021 (issued every 10 minutes, with the page automatically refreshed every 10 minutes)

About coastal observations | Map of coastal stations | Coastal observations for WA | Marine services | Other Formats
Station Details ID: 001007 Name: TROUGHTON ISLAND Lat: -13.75 Lon: 126.15 Height: 6.0 m
Data from the previous 72 hours. | See also: Recent months at Troughton Island
Date/Time
WST
Wind Sea
Height
m
Swell Vis
km
Cloud Weather Temp
°C
Press
MSL
hPa
Rain since
9am
mm
Dir  Spd
kts
Gust
kts
Height
m
Period
s
Dir
20/12:30pm ENE 17 21 - - - - - - - 28.0 1006.5 37.2
20/12:00pm ENE 14 17 - - - - - - Recent precip. 28.0 1007.0 37.0
20/11:30am ENE 14 17 - - - - - - - 27.3 1007.5 36.8
20/11:00am E 12 14 - - - - - - - 26.3 1007.7 36.0
20/10:46am ENE 15 28 - - - - - - - 26.0 1008.1 34.6
20/10:30am NE 17 22 - - - - - - - 25.9 1008.2 31.4
20/10:02am ENE 19 33 - - - - - - - 26.2 1008.2 22.4
20/10:00am ENE 19 24 - - - - - - - 25.9 1008.2 21.0
20/09:53am ENE 18 24 - - - - - - - 26.0 1008.3 19.2
20/09:30am NE 19 25 - - - - - - - 26.5 1008.0 12.6
20/09:15am ENE 16 24 - - - - - - - 26.1 1007.7 9.0
20/09:00am ESE 15 19 - - - - - - Rain 27.3 1007.7 93.4
20/08:30am ESE 19 25 - - - - - - - 27.4 1007.4 87.0
20/08:00am ESE 20 25 - - - - - - - 27.7 1007.1 84.6
20/07:30am ESE 22 28 - - - - - - - 27.5 1006.8 84.4
20/07:00am ESE 19 25 - - - - - - - 27.4 1006.7 82.2
20/06:32am ESE 23 33 - - - - - - - 27.3 1006.8 80.6
20/06:30am ESE 23 29 - - - - - - - 27.6 1006.8 80.6
20/06:00am ESE 23 28 - - - - - - Recent precip. 27.3 1006.6 80.6
20/05:30am ESE 24 32 - - - - - - - 27.2 1006.4 80.6
20/05:04am E 19 35 - - - - - - - 27.1 1005.9 80.4
20/05:01am E 16 37 - - - - - - - 27.0 1006.2 80.4
20/05:00am E 15 37 - - - - - - - 26.6 1006.2 80.4
20/04:53am ESE 16 36 - - - - - - - 26.5 1006.2 71.8
20/04:30am E 22 28 - - - - - - - 26.9 1006.3 69.4
20/04:28am E 22 28 - - - - - - - 26.7 1006.4 69.4
20/04:00am ENE 20 29 - - - - - - - 26.1 1006.2 67.6
20/03:58am ENE 19 29 - - - - - - - 26.5 1006.1 67.0
20/03:50am E 21 30 - - - - - - - 26.7 1005.9 65.0
20/03:30am ESE 23 29 - - - - - - - 26.5 1005.7 62.0
20/03:00am E 22 30 - - - - - - Rain 27.1 1006.0 59.2
20/02:30am ESE 23 28 - - - - - - - 26.8 1005.6 56.4
20/02:00am SE 23 29 - - - - - - - 26.3 1006.0 51.6
20/01:30am ESE 19 24 - - - - - - - 26.1 1006.4 49.0
20/01:00am ESE 19 24 - - - - - - - 25.4 1006.9 49.0
20/12:30am E 26 32 - - - - - - - 25.7 1007.3 39.8
20/12:00am ESE 22 28 - - - - - - Rain 26.0 1007.2 17.6
 
Date/Time
WST
Wind Sea
Height
m
Swell Vis
km
Cloud Weather Temp
°C
Press
MSL
hPa
Rain since
9am
mm
Dir  Spd
kts
Gust
kts
Height
m
Period
s
Dir
19/11:30pm SE 23 28 - - - - - - - 27.4 1006.6 2.4
19/11:00pm ESE 18 23 - - - - - - - 27.5 1007.2 2.4
19/10:30pm ESE 23 27 - - - - - - - 27.5 1007.1 2.4
19/10:00pm ESE 18 25 - - - - - - - 27.9 1007.4 2.4
19/09:30pm ESE 19 23 - - - - - - - 27.0 1007.2 2.4
19/09:07pm ESE 15 27 - - - - - - - 28.1 1007.2 1.8
19/09:00pm ESE 12 15 - - - - - - Recent precip. 27.9 1007.0 1.8
19/08:30pm SE 14 16 - - - - - - - 27.5 1007.2 1.6
19/08:00pm SE 19 23 - - - - - - - 26.8 1007.1 1.6
19/07:30pm ESE 21 34 - - - - - - - 28.5 1006.8 0.0
19/07:29pm ESE 20 30 - - - - - - - 29.2 1006.8 0.0
19/07:00pm ESE 19 24 - - - - - - - 30.3 1006.4 0.0
19/06:30pm ESE 18 23 - - - - - - - 30.3 1005.9 0.0
19/06:00pm ESE 18 21 - - - - - - - 30.3 1005.4 0.0
19/05:30pm ESE 17 21 - - - - - - - 30.3 1005.2 0.0
19/05:00pm ESE 17 19 - - - - - - - 30.3 1005.0 0.0
19/04:30pm ESE 17 22 - - - - - - - 30.3 1004.7 0.0
19/04:00pm ESE 17 21 - - - - - - - 30.1 1004.6 0.0
19/03:30pm ESE 17 21 - - - - - - - 30.3 1004.6 0.0
19/03:00pm ESE 17 22 - - - - - - - 30.7 1004.5 0.0
19/02:30pm ESE 17 22 - - - - - - - 30.9 1004.3 0.0
19/02:00pm ESE 19 24 - - - - - - - 30.9 1004.0 0.0
19/01:30pm ESE 20 24 - - - - - - - 30.9 1004.4 0.0
19/01:00pm ESE 19 25 - - - - - - - 30.8 1004.9 0.0
19/12:30pm ESE 14 17 - - - - - - - 30.4 1005.1 0.0
19/12:00pm ESE 13 17 - - - - - - - 29.7 1005.6 0.0
19/11:30am ESE 16 21 - - - - - - - 29.9 1005.7 0.0
19/11:00am ESE 17 21 - - - - - - - 30.8 1006.4 0.0
19/10:30am ESE 14 17 - - - - - - - 30.5 1006.8 0.0
19/10:00am ESE 14 17 - - - - - - - 31.0 1007.0 0.0
19/09:30am ESE 14 16 - - - - - - - 30.7 1007.0 0.0
19/09:00am ESE 15 19 - - - - - - - 30.5 1007.1 4.8
19/08:30am SE 15 20 - - - - - - - 30.7 1007.0 4.8
19/08:00am SE 17 22 - - - - - - - 30.5 1006.8 4.8
19/07:30am SE 15 19 - - - - - - - 30.2 1006.7 4.8
19/07:00am SE 16 20 - - - - - - - 30.0 1006.5 4.8
19/06:30am SE 17 21 - - - - - - - 30.0 1006.6 4.8
19/06:00am ESE 18 23 - - - - - - - 29.9 1006.7 4.8
19/05:30am ESE 16 19 - - - - - - - 29.9 1006.6 4.8
19/05:00am ESE 12 16 - - - - - - - 29.9 1006.4 4.8
19/04:30am ESE 13 16 - - - - - - - 29.7 1005.8 4.8
19/04:00am ESE 13 16 - - - - - - - 29.6 1005.2 4.8
19/03:30am ESE 9 13 - - - - - - - 29.1 1005.1 4.8
19/03:00am E 5 8 - - - - - - - 28.0 1005.3 4.6
19/02:30am SE 4 5 - - - - - - - 26.9 1005.3 4.6
19/02:00am SE 12 19 - - - - - - - 26.1 1005.8 4.6
19/01:30am SW 12 15 - - - - - - - 30.3 1005.0 0.0
19/01:00am SW 14 17 - - - - - - - 30.2 1004.7 0.0
19/12:30am SW 15 18 - - - - - - - 30.3 1004.8 0.0
19/12:00am SW 14 17 - - - - - - - 30.4 1005.1 0.0
 
Date/Time
WST
Wind Sea
Height
m
Swell Vis
km
Cloud Weather Temp
°C
Press
MSL
hPa
Rain since
9am
mm
Dir  Spd
kts
Gust
kts
Height
m
Period
s
Dir
18/11:30pm SW 13 16 - - - - - - - 30.3 1006.0 0.0
18/11:00pm SW 15 17 - - - - - - - 30.2 1006.3 0.0
18/10:30pm SW 13 14 - - - - - - - 30.1 1006.7 0.0
18/10:00pm SSW 10 12 - - - - - - - 30.1 1006.7 0.0
18/09:30pm SW 10 11 - - - - - - - 30.1 1006.8 0.0
18/09:00pm SW 9 11 - - - - - - - 30.0 1006.6 0.0
18/08:30pm SW 8 10 - - - - - - - 29.8 1006.2 0.0
18/08:00pm WSW 8 10 - - - - - - - 29.8 1005.9 0.0
18/07:30pm WSW 8 10 - - - - - - - 29.7 1005.6 0.0
18/07:00pm W 7 9 - - - - - - - 29.6 1005.4 0.0
18/06:30pm S 5 8 - - - - - - - 29.7 1005.4 0.0
18/06:00pm SW 8 11 - - - - - - - 29.6 1005.5 0.0
18/05:30pm SW 9 10 - - - - - - - 29.9 1005.3 0.0
18/05:00pm SW 9 11 - - - - - - - 30.2 1005.0 0.0
18/04:30pm SSW 8 10 - - - - - - - 30.2 1004.9 0.0
18/04:00pm S 8 10 - - - - - - - 30.4 1004.8 0.0
18/03:30pm S 7 8 - - - - - - - 30.6 1004.7 0.0
18/03:00pm S 5 6 - - - - - - - 30.7 1004.8 0.0
18/02:30pm SW 5 7 - - - - - - - 30.7 1005.3 0.0
18/02:00pm SSW 4 6 - - - - - - - 30.9 1005.5 0.0
18/01:30pm S 2 3 - - - - - - - 30.8 1006.1 0.0
18/01:00pm NE 2 4 - - - - - - - 30.5 1006.6 0.0
18/12:30pm NE 5 7 - - - - - - - 30.4 1006.5 0.0
18/12:00pm NE 7 9 - - - - - - - 30.3 1006.5 0.0
18/11:30am NE 9 12 - - - - - - - 29.8 1006.8 0.0
18/11:00am NE 13 16 - - - - - - - 29.8 1007.0 0.0
18/10:30am ENE 15 20 - - - - - - - 29.9 1007.6 0.0
18/10:04am E 10 22 - - - - - - - 28.1 1007.6 0.0
18/10:00am ESE 6 9 - - - - - - - 30.7 1007.5 0.0
18/09:30am WSW 5 7 - - - - - - - 31.0 1007.5 0.0
18/09:00am WSW 7 9 - - - - - - - 30.8 1007.2 0.0
18/08:30am WSW 6 7 - - - - - - - 30.7 1007.1 0.0
18/08:00am WSW 7 8 - - - - - - - 30.5 1007.1 0.0
18/07:30am WSW 8 10 - - - - - - - 30.1 1006.9 0.0
18/07:00am WSW 10 11 - - - - - - - 29.9 1006.5 0.0
18/06:30am WSW 11 13 - - - - - - - 29.8 1006.5 0.0
18/06:00am WSW 11 13 - - - - - - - 29.7 1006.6 0.0
18/05:30am WSW 12 15 - - - - - - - 29.6 1006.1 0.0
18/05:00am WSW 10 12 - - - - - - - 29.2 1005.6 0.0
18/04:30am WSW 11 13 - - - - - - - 28.9 1005.0 0.0
18/04:00am SW 9 11 - - - - - - - 28.7 1004.6 0.0
18/03:30am WSW 11 15 - - - - - - - 28.8 1004.5 0.0
18/03:00am WSW 12 14 - - - - - - - 29.0 1004.5 0.0
18/02:30am W 11 13 - - - - - - - 28.9 1004.4 0.0
18/02:00am W 10 12 - - - - - - - 28.4 1004.1 0.0
18/01:30am WSW 11 19 - - - - - - - 29.3 1004.9 0.0
18/01:00am WNW 9 11 - - - - - - - 30.4 1005.1 0.0
18/12:30am NNW 10 11 - - - - - - - 30.1 1005.4 0.0
18/12:00am NW 10 11 - - - - - - - 30.1 1005.7 0.0
 
Date/Time
WST
Wind Sea
Height
m
Swell Vis
km
Cloud Weather Temp
°C
Press
MSL
hPa
Rain since
9am
mm
Dir  Spd
kts
Gust
kts
Height
m
Period
s
Dir
17/11:30pm NW 9 11 - - - - - - - 30.1 1006.1 0.0
17/11:00pm NW 9 11 - - - - - - - 30.0 1006.3 0.0
17/10:30pm NW 11 12 - - - - - - - 30.1 1006.4 0.0
17/10:00pm NW 10 12 - - - - - - - 30.1 1006.8 0.0
17/09:30pm NW 9 11 - - - - - - - 30.1 1007.0 0.0
17/09:00pm NW 10 11 - - - - - - - 30.1 1006.8 0.0
17/08:30pm NNW 9 11 - - - - - - - 30.3 1006.5 0.0
17/08:00pm NNW 9 11 - - - - - - - 30.5 1006.2 0.0
17/07:30pm NNW 11 13 - - - - - - - 30.4 1005.9 0.0
17/07:00pm NNW 10 12 - - - - - - - 30.5 1005.7 0.0
17/06:30pm NNW 10 13 - - - - - - - 30.6 1005.4 0.0
17/06:00pm NW 11 13 - - - - - - - 30.6 1004.9 0.0
17/05:30pm NW 10 12 - - - - - - - 31.1 1004.1 0.0
17/05:00pm NW 9 11 - - - - - - - 31.7 1003.9 0.0
17/04:30pm WNW 9 11 - - - - - - - 32.4 1003.7 0.0
17/04:00pm WNW 8 10 - - - - - - - 32.2 1003.8 0.0
17/03:30pm WSW 6 8 - - - - - - - 32.0 1003.6 0.0
17/03:00pm SW 6 7 - - - - - - - 32.3 1003.8 0.0
17/02:30pm S 6 7 - - - - - - - 32.6 1004.0 0.0
17/02:00pm SSW 7 8 - - - - - - - 32.6 1004.4 0.0
17/01:30pm SW 8 9 - - - - - - - 32.8 1004.6 0.0
17/01:00pm W 8 9 - - - - - - - 33.1 1005.1 0.0

Other formats

Comma delimited format used in spreadsheet applications
http://www.bom.gov.au/fwo/IDW60701/IDW60701.94102.axf

JavaScript Object Notation format (JSON) in row-major order
http://www.bom.gov.au/fwo/IDW60701/IDW60701.94102.json

Data quality

Most of these data are generated automatically and are frequently updated. Quality checks on data are not normally performed. It is possible for incorrect values to appear. Refer to information at About Latest Weather Observations and please check the disclaimer before using these data.